PWSweather.com
Personal Weather Stations
Station Observations
DW6440
Atglen Borough, Atglen, PA 19310

Atglen BoroughAtglen, PA 19310

Lat: 39.9469, Lon: -75.979

Elevation: 498

Station Type: Davis Vantage Pro 2

http://atglenweather.net/

Latest ConditionsUpdated 11:02:40 PM EST Friday, Feb 23, 2018
Currently Today's Max Today's Min Today's Average
Temperature 41.4°F5.2°C 41.5°F5.3°C 36.0°F2.2°C 38.8°F3.8°C
Dew Point 40.6°F4.8°C 40.8°F4.9°C 34.7°F1.5°C 37.7°F3.2°C
Winds 2.9 mph SW4.7 kmh SW 4.0 mph E6.4 kmh E - 2.0 mph 3.2 kmh
Wind Gusts 7.0 mph11.3 kmh 12.1 mph19.5 kmh - -
Humidity 97% 97% 95% 96%
Pressure 30.23 in1023.7 mb 30.63 in1037.3 mb 30.23 in1023.7 mb -
Precipitation - 0.18 in4.6 mm - -
Hour Temp Dew Point Humidity Winds Wind Gusts Pressure Precip Precip Rate Daily Precip Total
11:02 PM 41.4°F5.2°C 40.6°F4.8°C 97% 2.9 mph SW4.7 kmh SW 7.0 mph11.3 kmh 30.23 in1023.7 mb 0.00 in0.0 mm 0.00 in0.0 mm 0.18 in4.6 mm
10:47 PM 41.5°F5.3°C 40.8°F4.9°C 97% 2.9 mph SW4.7 kmh SW 9.0 mph14.5 kmh 30.24 in1024.0 mb 0.00 in0.0 mm 0.00 in0.0 mm 0.18 in4.6 mm
10:32 PM 41.5°F5.3°C 40.8°F4.9°C 97% 4.0 mph WSW6.4 kmh WSW 9.0 mph14.5 kmh 30.24 in1024.0 mb 0.00 in0.0 mm 0.00 in0.0 mm 0.18 in4.6 mm
10:17 PM 41.4°F5.2°C 40.6°F4.8°C 97% 2.9 mph SW4.7 kmh SW 6.0 mph9.7 kmh 30.25 in1024.4 mb 0.00 in0.0 mm 0.00 in0.0 mm 0.18 in4.6 mm
10:02 PM 41.4°F5.2°C 40.6°F4.8°C 97% 0.9 mph WSW1.4 kmh WSW 4.0 mph6.4 kmh 30.27 in1025.1 mb 0.00 in0.0 mm 0.00 in0.0 mm 0.18 in4.6 mm
09:47 PM 41.4°F5.2°C 40.6°F4.8°C 97% 0.9 mph SW1.4 kmh SW 2.0 mph3.2 kmh 30.27 in1025.1 mb 0.00 in0.0 mm 0.00 in0.0 mm 0.18 in4.6 mm
09:32 PM 41.2°F5.1°C 40.5°F4.7°C 97% 0.9 mph SW1.4 kmh SW 2.9 mph4.7 kmh 30.27 in1025.1 mb 0.00 in0.0 mm 0.00 in0.0 mm 0.18 in4.6 mm
09:17 PM 41.2°F5.1°C 40.5°F4.7°C 97% 0.9 mph SW1.4 kmh SW 4.0 mph6.4 kmh 30.28 in1025.4 mb 0.00 in0.0 mm 0.00 in0.0 mm 0.18 in4.6 mm
09:02 PM 41.2°F5.1°C 40.5°F4.7°C 97% 0.9 mph SW1.4 kmh SW 4.0 mph6.4 kmh 30.28 in1025.4 mb 0.00 in0.0 mm 0.00 in0.0 mm 0.18 in4.6 mm
08:47 PM 41.2°F5.1°C 40.5°F4.7°C 97% 0.9 mph SSW1.4 kmh SSW 4.0 mph6.4 kmh 30.29 in1025.7 mb 0.00 in0.0 mm 0.00 in0.0 mm 0.18 in4.6 mm
08:32 PM 41.2°F5.1°C 40.5°F4.7°C 97% Calm Calm 2.0 mph3.2 kmh 30.29 in1025.7 mb 0.00 in0.0 mm 0.00 in0.0 mm 0.18 in4.6 mm
08:17 PM 41.2°F5.1°C 40.5°F4.7°C 97% Calm Calm 2.0 mph3.2 kmh 30.29 in1025.7 mb 0.00 in0.0 mm 0.00 in0.0 mm 0.18 in4.6 mm
08:02 PM 41.0°F5.0°C 40.3°F4.6°C 97% Calm Calm -- 30.30 in1026.1 mb 0.00 in0.0 mm 0.00 in0.0 mm 0.18 in4.6 mm
07:47 PM 41.0°F5.0°C 40.3°F4.6°C 97% Calm Calm -- 30.30 in1026.1 mb 0.00 in0.0 mm 0.00 in0.0 mm 0.18 in4.6 mm
07:32 PM 41.0°F5.0°C 40.3°F4.6°C 97% Calm Calm 2.0 mph3.2 kmh 30.31 in1026.4 mb 0.00 in0.0 mm 0.00 in0.0 mm 0.18 in4.6 mm
07:17 PM 41.2°F5.1°C 40.5°F4.7°C 97% 0.9 mph S1.4 kmh S 2.0 mph3.2 kmh 30.32 in1026.8 mb 0.00 in0.0 mm 0.00 in0.0 mm 0.18 in4.6 mm
07:02 PM 41.2°F5.1°C 40.5°F4.7°C 97% 0.9 mph S1.4 kmh S 2.9 mph4.7 kmh 30.32 in1026.8 mb 0.00 in0.0 mm 0.00 in0.0 mm 0.18 in4.6 mm
06:47 PM 41.0°F5.0°C 40.3°F4.6°C 97% 0.9 mph SE1.4 kmh SE 4.0 mph6.4 kmh 30.31 in1026.4 mb 0.01 in0.3 mm 0.00 in0.0 mm 0.18 in4.6 mm
06:32 PM 40.8°F4.9°C 40.1°F4.5°C 97% 2.0 mph S3.2 kmh S 6.0 mph9.7 kmh 30.32 in1026.8 mb 0.01 in0.3 mm 0.00 in0.0 mm 0.18 in4.6 mm
06:17 PM 40.8°F4.9°C 40.1°F4.5°C 97% 2.0 mph SE3.2 kmh SE 4.9 mph7.9 kmh 30.32 in1026.8 mb 0.01 in0.3 mm 0.00 in0.0 mm 0.18 in4.6 mm
06:02 PM 40.8°F4.9°C 40.1°F4.5°C 97% 2.0 mph SE3.2 kmh SE 4.9 mph7.9 kmh 30.33 in1027.1 mb 0.01 in0.3 mm 0.01 in0.3 mm 0.18 in4.6 mm
05:47 PM 40.8°F4.9°C 39.7°F4.3°C 96% 0.9 mph SE1.4 kmh SE 6.0 mph9.7 kmh 30.33 in1027.1 mb 0.00 in0.0 mm 0.00 in0.0 mm 0.17 in4.3 mm
05:32 PM 41.2°F5.1°C 40.5°F4.7°C 97% 2.9 mph SSE4.7 kmh SSE 4.9 mph7.9 kmh 30.35 in1027.8 mb 0.00 in0.0 mm 0.00 in0.0 mm 0.17 in4.3 mm
05:17 PM 41.2°F5.1°C 40.5°F4.7°C 97% 0.9 mph SSE1.4 kmh SSE 4.0 mph6.4 kmh 30.35 in1027.8 mb 0.00 in0.0 mm 0.00 in0.0 mm 0.17 in4.3 mm
05:02 PM 41.2°F5.1°C 40.1°F4.5°C 96% Calm Calm 2.0 mph3.2 kmh 30.36 in1028.1 mb 0.00 in0.0 mm 0.00 in0.0 mm 0.17 in4.3 mm
04:47 PM 41.2°F5.1°C 40.1°F4.5°C 96% 0.9 mph S1.4 kmh S 5.0 mph8.0 kmh 30.37 in1028.4 mb 0.00 in0.0 mm 0.00 in0.0 mm 0.17 in4.3 mm
04:32 PM 41.2°F5.1°C 40.1°F4.5°C 96% 0.9 mph SE1.4 kmh SE 7.0 mph11.3 kmh 30.37 in1028.4 mb 0.00 in0.0 mm 0.00 in0.0 mm 0.17 in4.3 mm
04:17 PM 41.2°F5.1°C 40.1°F4.5°C 96% 2.9 mph SE4.7 kmh SE 8.9 mph14.3 kmh 30.37 in1028.4 mb 0.00 in0.0 mm 0.00 in0.0 mm 0.17 in4.3 mm
04:02 PM 41.4°F5.2°C 40.3°F4.6°C 96% 4.0 mph S6.4 kmh S 8.9 mph14.3 kmh 30.37 in1028.4 mb 0.00 in0.0 mm 0.00 in0.0 mm 0.17 in4.3 mm
03:47 PM 41.4°F5.2°C 40.3°F4.6°C 96% 2.0 mph SE3.2 kmh SE 6.0 mph9.7 kmh 30.37 in1028.4 mb 0.00 in0.0 mm 0.00 in0.0 mm 0.17 in4.3 mm
03:32 PM 41.2°F5.1°C 40.1°F4.5°C 96% 2.9 mph SSE4.7 kmh SSE 7.0 mph11.3 kmh 30.40 in1029.5 mb 0.00 in0.0 mm 0.00 in0.0 mm 0.17 in4.3 mm
03:17 PM 41.2°F5.1°C 40.1°F4.5°C 96% 4.0 mph SSE6.4 kmh SSE 8.1 mph13.0 kmh 30.40 in1029.5 mb 0.00 in0.0 mm 0.00 in0.0 mm 0.17 in4.3 mm
03:02 PM 41.2°F5.1°C 40.1°F4.5°C 96% 4.0 mph S6.4 kmh S 11.0 mph17.7 kmh 30.40 in1029.5 mb 0.00 in0.0 mm 0.00 in0.0 mm 0.17 in4.3 mm
02:47 PM 41.2°F5.1°C 39.9°F4.4°C 95% 4.0 mph SSE6.4 kmh SSE 10.1 mph16.3 kmh 30.39 in1029.1 mb 0.00 in0.0 mm 0.00 in0.0 mm 0.17 in4.3 mm
02:32 PM 41.0°F5.0°C 39.7°F4.3°C 95% 4.0 mph SE6.4 kmh SE 9.0 mph14.5 kmh 30.40 in1029.5 mb 0.00 in0.0 mm 0.00 in0.0 mm 0.17 in4.3 mm
02:17 PM 41.0°F5.0°C 39.9°F4.4°C 96% 2.9 mph S4.7 kmh S 9.0 mph14.5 kmh 30.42 in1030.1 mb 0.00 in0.0 mm 0.00 in0.0 mm 0.17 in4.3 mm
02:02 PM 40.8°F4.9°C 39.7°F4.3°C 96% 2.9 mph ESE4.7 kmh ESE 8.1 mph13.0 kmh 30.41 in1029.8 mb 0.00 in0.0 mm 0.00 in0.0 mm 0.17 in4.3 mm
01:47 PM 40.6°F4.8°C 39.6°F4.2°C 96% 4.0 mph E6.4 kmh E 8.1 mph13.0 kmh 30.43 in1030.5 mb 0.01 in0.3 mm 0.00 in0.0 mm 0.17 in4.3 mm
01:32 PM 40.8°F4.9°C 39.7°F4.3°C 96% 2.9 mph ESE4.7 kmh ESE 8.1 mph13.0 kmh 30.45 in1031.2 mb 0.01 in0.3 mm 0.00 in0.0 mm 0.17 in4.3 mm
01:17 PM 40.3°F4.6°C 39.2°F4.0°C 96% 4.0 mph SSE6.4 kmh SSE 9.0 mph14.5 kmh 30.46 in1031.5 mb 0.01 in0.3 mm 0.00 in0.0 mm 0.17 in4.3 mm
01:02 PM 39.9°F4.4°C 38.8°F3.8°C 96% 2.9 mph ESE4.7 kmh ESE 8.1 mph13.0 kmh 30.47 in1031.8 mb 0.01 in0.3 mm 0.01 in0.3 mm 0.17 in4.3 mm
12:47 PM 39.6°F4.2°C 38.5°F3.6°C 96% 2.0 mph ESE3.2 kmh ESE 4.0 mph6.4 kmh 30.48 in1032.2 mb 0.00 in0.0 mm 0.00 in0.0 mm 0.16 in4.1 mm
12:32 PM 39.4°F4.1°C 38.3°F3.5°C 96% 0.9 mph ESE1.4 kmh ESE 2.9 mph4.7 kmh 30.50 in1032.8 mb 0.00 in0.0 mm 0.00 in0.0 mm 0.16 in4.1 mm
12:17 PM 38.8°F3.8°C 37.8°F3.2°C 96% 0.9 mph SE1.4 kmh SE 8.1 mph13.0 kmh 30.52 in1033.5 mb 0.00 in0.0 mm 0.00 in0.0 mm 0.16 in4.1 mm
12:02 PM 38.8°F3.8°C 37.8°F3.2°C 96% 2.9 mph ESE4.7 kmh ESE 10.1 mph16.3 kmh 30.51 in1033.2 mb 0.00 in0.0 mm 0.00 in0.0 mm 0.16 in4.1 mm
11:47 AM 38.3°F3.5°C 37.2°F2.9°C 96% 2.9 mph E4.7 kmh E 9.0 mph14.5 kmh 30.51 in1033.2 mb 0.00 in0.0 mm 0.00 in0.0 mm 0.16 in4.1 mm
11:32 AM 38.1°F3.4°C 37.0°F2.8°C 96% 2.9 mph NE4.7 kmh NE 8.9 mph14.3 kmh 30.52 in1033.5 mb 0.00 in0.0 mm 0.00 in0.0 mm 0.16 in4.1 mm
11:17 AM 37.8°F3.2°C 36.5°F2.5°C 95% 4.0 mph SE6.4 kmh SE 8.9 mph14.3 kmh 30.53 in1033.9 mb 0.00 in0.0 mm 0.00 in0.0 mm 0.16 in4.1 mm
11:02 AM 37.6°F3.1°C 36.3°F2.4°C 95% 2.9 mph E4.7 kmh E 6.9 mph11.1 kmh 30.56 in1034.9 mb 0.00 in0.0 mm 0.00 in0.0 mm 0.16 in4.1 mm
10:47 AM 37.6°F3.1°C 36.3°F2.4°C 95% 2.9 mph ESE4.7 kmh ESE 10.1 mph16.3 kmh 30.55 in1034.5 mb 0.00 in0.0 mm 0.00 in0.0 mm 0.16 in4.1 mm
10:32 AM 37.6°F3.1°C 36.5°F2.5°C 96% 4.0 mph ESE6.4 kmh ESE 12.1 mph19.5 kmh 30.56 in1034.9 mb 0.00 in0.0 mm 0.00 in0.0 mm 0.16 in4.1 mm
10:17 AM 37.2°F2.9°C 36.1°F2.3°C 96% 2.9 mph ESE4.7 kmh ESE 7.0 mph11.3 kmh 30.58 in1035.6 mb 0.00 in0.0 mm 0.00 in0.0 mm 0.16 in4.1 mm
10:02 AM 37.0°F2.8°C 36.0°F2.2°C 96% 0.9 mph ESE1.4 kmh ESE 8.1 mph13.0 kmh 30.58 in1035.6 mb 0.00 in0.0 mm 0.00 in0.0 mm 0.16 in4.1 mm
09:47 AM 36.9°F2.7°C 35.6°F2.0°C 95% 0.9 mph SE1.4 kmh SE 7.0 mph11.3 kmh 30.58 in1035.6 mb 0.02 in0.5 mm 0.00 in0.0 mm 0.16 in4.1 mm
09:32 AM 36.7°F2.6°C 35.4°F1.9°C 95% 2.0 mph ESE3.2 kmh ESE 8.1 mph13.0 kmh 30.58 in1035.6 mb 0.03 in0.8 mm 0.00 in0.0 mm 0.16 in4.1 mm
09:17 AM 36.7°F2.6°C 35.4°F1.9°C 95% 2.9 mph ESE4.7 kmh ESE 9.0 mph14.5 kmh 30.58 in1035.6 mb 0.04 in1.0 mm 0.00 in0.0 mm 0.16 in4.1 mm
09:02 AM 36.3°F2.4°C 35.1°F1.7°C 95% 2.9 mph SE4.7 kmh SE 8.9 mph14.3 kmh 30.59 in1035.9 mb 0.05 in1.3 mm 0.01 in0.3 mm 0.16 in4.1 mm
08:47 AM 36.3°F2.4°C 35.1°F1.7°C 95% 2.9 mph E4.7 kmh E 8.9 mph14.3 kmh 30.59 in1035.9 mb 0.04 in1.0 mm 0.00 in0.0 mm 0.14 in3.6 mm
08:32 AM 36.1°F2.3°C 34.9°F1.6°C 95% 2.9 mph ESE4.7 kmh ESE 7.0 mph11.3 kmh 30.59 in1035.9 mb 0.04 in1.0 mm 0.04 in1.0 mm 0.13 in3.3 mm
08:17 AM 36.1°F2.3°C 34.9°F1.6°C 95% 2.0 mph ESE3.2 kmh ESE 6.0 mph9.7 kmh 30.60 in1036.2 mb 0.03 in0.8 mm 0.00 in0.0 mm 0.12 in3.0 mm
08:02 AM 36.0°F2.2°C 34.7°F1.5°C 95% 0.9 mph ESE1.4 kmh ESE 4.0 mph6.4 kmh 30.60 in1036.2 mb 0.03 in0.8 mm 0.01 in0.3 mm 0.11 in2.8 mm
07:47 AM 36.0°F2.2°C 34.7°F1.5°C 95% 0.9 mph E1.4 kmh E 4.0 mph6.4 kmh 30.61 in1036.6 mb 0.02 in0.5 mm 0.04 in1.0 mm 0.10 in2.5 mm
07:32 AM 36.1°F2.3°C 34.9°F1.6°C 95% 2.0 mph E3.2 kmh E 9.0 mph14.5 kmh 30.59 in1035.9 mb 0.01 in0.3 mm 0.00 in0.0 mm 0.09 in2.3 mm
07:17 AM 36.1°F2.3°C 34.9°F1.6°C 95% 2.0 mph E3.2 kmh E 6.0 mph9.7 kmh 30.59 in1035.9 mb 0.01 in0.3 mm 0.04 in1.0 mm 0.09 in2.3 mm
07:02 AM 36.1°F2.3°C 34.9°F1.6°C 95% 2.0 mph ESE3.2 kmh ESE 8.9 mph14.3 kmh 30.59 in1035.9 mb 0.00 in0.0 mm 0.00 in0.0 mm 0.08 in2.0 mm
06:47 AM 36.0°F2.2°C 34.7°F1.5°C 95% 4.0 mph SE6.4 kmh SE 10.1 mph16.3 kmh 30.58 in1035.6 mb 0.00 in0.0 mm 0.00 in0.0 mm 0.08 in2.0 mm
06:32 AM 36.1°F2.3°C 34.9°F1.6°C 95% 4.0 mph E6.4 kmh E 8.9 mph14.3 kmh 30.58 in1035.6 mb 0.00 in0.0 mm 0.00 in0.0 mm 0.08 in2.0 mm
06:17 AM 36.3°F2.4°C 35.1°F1.7°C 95% 2.0 mph ESE3.2 kmh ESE 8.1 mph13.0 kmh 30.58 in1035.6 mb 0.02 in0.5 mm 0.00 in0.0 mm 0.08 in2.0 mm
06:02 AM 36.5°F2.5°C 35.4°F1.9°C 96% 2.0 mph ESE3.2 kmh ESE 8.9 mph14.3 kmh 30.59 in1035.9 mb 0.04 in1.0 mm 0.00 in0.0 mm 0.08 in2.0 mm
05:47 AM 36.7°F2.6°C 35.6°F2.0°C 96% 2.0 mph ESE3.2 kmh ESE 9.0 mph14.5 kmh 30.58 in1035.6 mb 0.05 in1.3 mm 0.00 in0.0 mm 0.08 in2.0 mm
05:32 AM 36.7°F2.6°C 35.6°F2.0°C 96% 2.0 mph ESE3.2 kmh ESE 6.9 mph11.1 kmh 30.59 in1035.9 mb 0.05 in1.3 mm 0.08 in2.0 mm 0.08 in2.0 mm
05:17 AM 36.7°F2.6°C 35.6°F2.0°C 96% 0.9 mph E1.4 kmh E 6.0 mph9.7 kmh 30.59 in1035.9 mb 0.03 in0.8 mm 0.04 in1.0 mm 0.06 in1.5 mm
05:02 AM 36.7°F2.6°C 35.6°F2.0°C 96% 0.9 mph ESE1.4 kmh ESE 8.1 mph13.0 kmh 30.59 in1035.9 mb 0.02 in0.5 mm 0.01 in0.3 mm 0.04 in1.0 mm
04:47 AM 36.7°F2.6°C 35.6°F2.0°C 96% 2.9 mph SSE4.7 kmh SSE 9.0 mph14.5 kmh 30.59 in1035.9 mb 0.01 in0.3 mm 0.00 in0.0 mm 0.03 in0.8 mm
04:32 AM 36.9°F2.7°C 35.8°F2.1°C 96% 2.0 mph E3.2 kmh E 6.0 mph9.7 kmh 30.60 in1036.2 mb 0.02 in0.5 mm 0.00 in0.0 mm 0.03 in0.8 mm
04:17 AM 36.7°F2.6°C 35.6°F2.0°C 96% 2.0 mph ESE3.2 kmh ESE 9.0 mph14.5 kmh 30.60 in1036.2 mb 0.02 in0.5 mm 0.04 in1.0 mm 0.03 in0.8 mm
04:02 AM 36.9°F2.7°C 35.8°F2.1°C 96% 2.0 mph ESE3.2 kmh ESE 6.9 mph11.1 kmh 30.59 in1035.9 mb 0.01 in0.3 mm 0.00 in0.0 mm 0.02 in0.5 mm
03:47 AM 36.7°F2.6°C 35.6°F2.0°C 96% 2.0 mph SE3.2 kmh SE 8.9 mph14.3 kmh 30.58 in1035.6 mb 0.01 in0.3 mm 0.04 in1.0 mm 0.02 in0.5 mm
03:32 AM 36.9°F2.7°C 35.8°F2.1°C 96% 0.9 mph ESE1.4 kmh ESE 6.0 mph9.7 kmh 30.59 in1035.9 mb 0.00 in0.0 mm 0.00 in0.0 mm 0.01 in0.3 mm
03:17 AM 36.9°F2.7°C 35.6°F2.0°C 95% 2.0 mph ESE3.2 kmh ESE 7.0 mph11.3 kmh 30.59 in1035.9 mb 0.00 in0.0 mm 0.00 in0.0 mm 0.01 in0.3 mm
03:02 AM 36.9°F2.7°C 35.6°F2.0°C 95% 0.9 mph E1.4 kmh E 4.0 mph6.4 kmh 30.61 in1036.6 mb 0.01 in0.3 mm 0.00 in0.0 mm 0.01 in0.3 mm
02:47 AM 36.9°F2.7°C 35.6°F2.0°C 95% 0.9 mph ESE1.4 kmh ESE 6.0 mph9.7 kmh 30.61 in1036.6 mb 0.01 in0.3 mm 0.00 in0.0 mm 0.01 in0.3 mm
02:32 AM 36.7°F2.6°C 35.4°F1.9°C 95% 0.9 mph E1.4 kmh E 8.1 mph13.0 kmh 30.60 in1036.2 mb 0.01 in0.3 mm 0.00 in0.0 mm 0.01 in0.3 mm
02:17 AM 36.9°F2.7°C 35.6°F2.0°C 95% 2.0 mph SE3.2 kmh SE 8.1 mph13.0 kmh 30.59 in1035.9 mb 0.01 in0.3 mm 0.04 in1.0 mm 0.01 in0.3 mm
02:02 AM 36.9°F2.7°C 35.6°F2.0°C 95% 2.0 mph E3.2 kmh E 10.1 mph16.3 kmh 30.59 in1035.9 mb 0.00 in0.0 mm 0.00 in0.0 mm 0.00 in0.0 mm
01:47 AM 37.0°F2.8°C 35.8°F2.1°C 95% 2.9 mph E4.7 kmh E 7.0 mph11.3 kmh 30.61 in1036.6 mb 0.00 in0.0 mm 0.00 in0.0 mm 0.00 in0.0 mm
01:32 AM 37.0°F2.8°C 35.8°F2.1°C 95% 0.9 mph E1.4 kmh E 6.0 mph9.7 kmh 30.63 in1037.3 mb 0.00 in0.0 mm 0.00 in0.0 mm 0.00 in0.0 mm
01:17 AM 36.9°F2.7°C 35.6°F2.0°C 95% 0.9 mph E1.4 kmh E 6.9 mph11.1 kmh 30.62 in1036.9 mb 0.00 in0.0 mm 0.00 in0.0 mm 0.00 in0.0 mm
01:02 AM 36.9°F2.7°C 35.6°F2.0°C 95% 2.0 mph NE3.2 kmh NE 9.0 mph14.5 kmh 30.61 in1036.6 mb 0.00 in0.0 mm 0.00 in0.0 mm 0.00 in0.0 mm
12:47 AM 37.0°F2.8°C 35.8°F2.1°C 95% 2.0 mph NE3.2 kmh NE 6.9 mph11.1 kmh 30.61 in1036.6 mb 0.00 in0.0 mm 0.00 in0.0 mm 0.00 in0.0 mm
12:32 AM 37.2°F2.9°C 36.1°F2.3°C 96% 0.9 mph NNE1.4 kmh NNE 6.0 mph9.7 kmh 30.61 in1036.6 mb 0.00 in0.0 mm 0.00 in0.0 mm 0.00 in0.0 mm
12:17 AM 37.0°F2.8°C 35.8°F2.1°C 95% 0.9 mph NE1.4 kmh NE 8.1 mph13.0 kmh 30.61 in1036.6 mb 0.00 in0.0 mm 0.00 in0.0 mm 0.00 in0.0 mm
12:02 AM 37.0°F2.8°C 35.8°F2.1°C 95% 0.9 mph ENE1.4 kmh ENE 5.0 mph8.0 kmh 30.61 in1036.6 mb 0.00 in0.0 mm 0.00 in0.0 mm 0.00 in0.0 mm